Time;durP1;ratioP1;P1;durP2;ratioP2;P2;SDS_P1;SDS_P2;PMS_P1;PMS_P2;Temp;Humidity;BMP_temperature;BMP_pressure;BME280_temperature;BME280_humidity;BME280_pressure;Samples;Min_cycle;Max_cycle;Signal;HPM_P1;HPM_P2
2024/03/09 00:04:01;;;;;;;343.20;101.20;;;;;;;0.21;65.51;100747.34;681962;1266;140401;-80
2024/03/09 00:19:04;;;;;;;226.10;70.50;;;;;;;0.17;65.88;100745.45;681969;1266;139587;-80
2024/03/09 00:34:08;;;;;;;146.20;48.50;;;;;;;0.15;66.22;100733.45;681899;1270;139838;-81
2024/03/09 00:49:13;;;;;;;147.20;46.00;;;;;;;0.10;66.28;100722.45;682020;1265;140342;-80
2024/03/09 01:04:17;;;;;;;165.50;55.00;;;;;;;0.01;66.30;100711.10;681849;1273;139546;-81
2024/03/09 01:19:20;;;;;;;189.30;59.40;;;;;;;-0.09;66.23;100706.48;681967;1260;138928;-82
2024/03/09 01:34:23;;;;;;;169.40;55.60;;;;;;;-0.18;66.72;100701.30;681911;1267;139403;-81
2024/03/09 01:49:28;;;;;;;125.50;44.30;;;;;;;-0.14;66.91;100690.67;681855;1274;139103;-81
2024/03/09 02:04:34;;;;;;;107.50;40.00;;;;;;;-0.26;67.05;100687.84;681843;1267;139704;-82
2024/03/09 02:19:38;;;;;;;88.30;33.40;;;;;;;-0.26;67.33;100674.11;682092;1261;140255;-82
2024/03/09 02:34:43;;;;;;;108.90;37.90;;;;;;;-0.24;66.97;100669.73;681925;1263;139341;-81
2024/03/09 02:49:46;;;;;;;139.70;47.90;;;;;;;-0.40;67.19;100666.35;682021;1261;139366;-82
2024/03/09 03:04:49;;;;;;;108.80;41.80;;;;;;;-0.43;67.29;100666.30;681968;1261;140138;-82
2024/03/09 03:19:53;;;;;;;66.60;28.80;;;;;;;-0.48;67.30;100661.66;681938;1264;140983;-82
2024/03/09 03:34:56;;;;;;;76.10;30.60;;;;;;;-0.54;67.37;100654.50;681885;1260;140538;-82
2024/03/09 03:50:00;;;;;;;80.30;33.90;;;;;;;-0.64;67.72;100642.81;682010;1265;140810;-82
2024/03/09 04:05:04;;;;;;;93.30;36.60;;;;;;;-0.61;67.90;100646.48;682033;1261;141171;-81
2024/03/09 04:20:09;;;;;;;81.80;32.00;;;;;;;-0.63;68.00;100634.86;682036;1261;140871;-82
2024/03/09 04:35:12;;;;;;;67.20;27.20;;;;;;;-0.61;68.21;100631.01;682073;1261;139191;-82
2024/03/09 04:50:19;;;;;;;117.10;42.50;;;;;;;-0.71;68.26;100625.36;682035;1260;139757;-82
2024/03/09 05:05:30;;;;;;;158.20;56.90;;;;;;;-0.90;68.28;100615.89;682129;1261;139316;-81
2024/03/09 05:20:34;;;;;;;164.00;51.50;;;;;;;-0.84;68.33;100616.91;681914;1261;139838;-81
2024/03/09 05:35:39;;;;;;;178.00;59.10;;;;;;;-0.75;68.44;100611.23;682224;1261;139241;-82
2024/03/09 05:50:42;;;;;;;277.70;105.80;;;;;;;-0.62;68.76;100612.00;682159;1261;139244;-82
2024/03/09 06:05:47;;;;;;;208.50;74.50;;;;;;;-0.35;68.93;100621.48;682216;1262;139891;-81
2024/03/09 06:20:51;;;;;;;212.20;77.70;;;;;;;0.28;69.41;100621.23;682193;1262;141494;-82
2024/03/09 06:35:56;;;;;;;226.90;90.20;;;;;;;4.22;69.83;100628.38;682083;1264;140313;-81
2024/03/09 06:50:59;;;;;;;213.60;93.20;;;;;;;8.93;67.52;100629.07;682022;1260;139722;-81
2024/03/09 07:06:03;;;;;;;172.00;76.10;;;;;;;12.57;61.44;100635.39;682113;1262;138749;-82
2024/03/09 07:21:10;;;;;;;466.10;207.90;;;;;;;13.94;57.33;100629.98;681911;1262;139070;-81
2024/03/09 07:36:20;;;;;;;147.40;69.10;;;;;;;13.24;54.14;100627.60;682093;1265;140418;-81
2024/03/09 07:51:28;;;;;;;64.50;34.60;;;;;;;10.44;53.51;100624.95;681836;1262;139888;-80
2024/03/09 08:06:32;;;;;;;39.50;20.40;;;;;;;10.68;55.79;100621.40;681706;1261;209140;-80
2024/03/09 08:21:35;;;;;;;55.00;27.10;;;;;;;14.08;53.24;100619.25;681791;1262;138485;-80
2024/03/09 08:36:39;;;;;;;36.70;22.50;;;;;;;15.11;51.11;100615.77;682246;1263;138523;-78
2024/03/09 08:51:42;;;;;;;70.10;30.60;;;;;;;15.41;49.50;100605.75;681946;1261;138810;-78
2024/03/09 09:06:46;;;;;;;25.70;14.60;;;;;;;14.42;49.90;100588.70;682145;1262;138625;-78
2024/03/09 09:21:49;;;;;;;26.10;13.90;;;;;;;14.44;50.03;100574.09;681770;1262;138369;-78
2024/03/09 09:36:53;;;;;;;29.10;15.10;;;;;;;14.54;48.40;100568.16;682045;1262;140296;-78
2024/03/09 09:51:58;;;;;;;38.20;21.30;;;;;;;14.67;47.48;100566.51;681935;1264;139983;-79
2024/03/09 10:07:07;;;;;;;29.30;14.80;;;;;;;14.56;46.70;100554.92;682139;1264;138486;-79
2024/03/09 10:22:11;;;;;;;33.20;17.00;;;;;;;14.73;45.08;100537.70;681922;1264;138702;-78
2024/03/09 10:37:17;;;;;;;51.70;22.80;;;;;;;14.55;43.98;100530.41;682010;1266;138579;-77
2024/03/09 10:52:25;;;;;;;48.80;24.70;;;;;;;15.38;44.03;100518.80;681905;1262;138695;-80
2024/03/09 11:07:29;;;;;;;43.50;18.40;;;;;;;15.25;43.64;100510.60;681996;1264;139440;-79
2024/03/09 11:22:42;;;;;;;49.40;21.50;;;;;;;14.67;43.24;100494.20;681937;1264;139282;-77
2024/03/09 11:37:49;;;;;;;57.50;29.50;;;;;;;14.49;43.85;100472.63;682144;1264;139401;-77
2024/03/09 11:52:54;;;;;;;32.70;16.60;;;;;;;13.85;44.32;100456.63;681904;1264;139835;-80
2024/03/09 12:07:58;;;;;;;109.10;31.80;;;;;;;13.60;44.29;100442.27;681812;1264;138678;-80
2024/03/09 12:23:02;;;;;;;58.30;20.70;;;;;;;13.63;44.23;100425.41;682044;1264;140704;-78
2024/03/09 12:38:13;;;;;;;81.40;26.00;;;;;;;13.47;44.50;100413.44;681683;1266;138537;-80
2024/03/09 12:53:21;;;;;;;152.90;43.30;;;;;;;13.29;45.02;100401.80;682409;1264;139321;-81
2024/03/09 13:08:26;;;;;;;93.70;29.50;;;;;;;13.32;45.38;100384.11;682046;1266;138512;-79
2024/03/09 13:23:32;;;;;;;38.00;16.40;;;;;;;13.36;46.01;100375.83;682165;1262;138475;-80
2024/03/09 13:38:42;;;;;;;44.30;20.70;;;;;;;13.07;46.24;100353.30;682275;1265;139408;-80
2024/03/09 13:54:17;;;;;;;209.90;72.60;;;;;;;13.22;46.18;100337.30;682345;1260;138467;-81
2024/03/09 14:09:23;;;;;;;148.80;56.10;;;;;;;13.09;46.05;100309.07;681956;1263;139937;-80
2024/03/09 14:24:37;;;;;;;125.90;45.70;;;;;;;12.96;46.73;100299.98;682009;1260;138448;-80
2024/03/09 14:39:44;;;;;;;150.40;51.00;;;;;;;12.82;46.68;100284.84;682244;1266;139056;-80
2024/03/09 14:54:51;;;;;;;837.30;320.00;;;;;;;12.64;47.27;100272.61;682168;1267;139766;-80
2024/03/09 15:09:55;;;;;;;189.30;69.90;;;;;;;12.45;47.68;100263.34;682051;1275;139589;-80
2024/03/09 15:25:09;;;;;;;121.80;44.20;;;;;;;12.27;48.50;100261.50;682214;1265;138546;-80
2024/03/09 15:40:16;;;;;;;139.80;45.70;;;;;;;11.69;48.97;100254.32;681583;1263;138694;-80
2024/03/09 15:55:23;;;;;;;143.70;50.30;;;;;;;11.19;50.13;100254.68;681811;1262;139867;-78
2024/03/09 16:10:30;;;;;;;145.60;57.10;;;;;;;10.61;51.07;100257.10;681869;1265;139065;-81
2024/03/09 16:25:37;;;;;;;323.80;121.40;;;;;;;9.98;52.50;100255.66;682077;1266;138668;-80
2024/03/09 16:40:41;;;;;;;351.50;114.90;;;;;;;9.59;54.16;100256.34;682202;1261;138489;-79
2024/03/09 16:55:45;;;;;;;156.70;59.00;;;;;;;8.82;54.62;100253.98;682127;1263;139347;-79
2024/03/09 17:10:51;;;;;;;160.00;62.70;;;;;;;7.89;55.67;100259.31;682258;1260;138092;-78
2024/03/09 17:25:55;;;;;;;203.50;75.50;;;;;;;7.07;56.76;100260.20;682135;1261;138194;-79
2024/03/09 17:40:59;;;;;;;150.30;58.30;;;;;;;6.46;57.58;100259.44;681908;1264;138584;-78
2024/03/09 17:56:06;;;;;;;150.00;58.80;;;;;;;6.51;58.17;100253.33;681850;1265;139017;-78
2024/03/09 18:11:09;;;;;;;79.80;34.80;;;;;;;6.28;58.70;100249.90;681804;1263;140316;-78
2024/03/09 18:26:14;;;;;;;220.80;79.20;;;;;;;6.44;58.69;100238.67;681811;1261;139134;-79
2024/03/09 18:41:18;;;;;;;426.60;128.20;;;;;;;5.92;59.17;100242.80;681883;1260;139474;-79
2024/03/09 18:56:22;;;;;;;659.70;224.40;;;;;;;5.47;60.35;100252.77;681836;1261;139800;-78
2024/03/09 19:11:27;;;;;;;298.80;96.00;;;;;;;4.99;60.76;100258.70;681924;1262;139430;-78
2024/03/09 19:26:31;;;;;;;133.40;48.30;;;;;;;5.25;61.45;100249.00;681692;1266;139472;-78
2024/03/09 19:41:35;;;;;;;133.70;46.30;;;;;;;5.58;61.39;100259.48;682106;1261;139342;-78
2024/03/09 19:56:39;;;;;;;195.00;66.40;;;;;;;5.28;61.87;100266.36;681856;1264;138873;-78
2024/03/09 20:11:42;;;;;;;201.90;71.60;;;;;;;4.87;62.09;100265.71;681762;1261;247955;-80
2024/03/09 20:26:46;;;;;;;214.10;70.70;;;;;;;4.66;62.08;100263.09;681707;1264;139612;-79
2024/03/09 20:41:53;;;;;;;127.40;45.50;;;;;;;4.71;62.48;100257.54;681909;1260;139116;-80
2024/03/09 20:56:57;;;;;;;500.80;191.30;;;;;;;4.58;62.82;100263.23;681885;1261;142041;-78
2024/03/09 21:12:02;;;;;;;191.30;63.50;;;;;;;4.30;63.18;100257.15;681936;1262;139771;-78
2024/03/09 21:27:05;;;;;;;105.40;38.00;;;;;;;4.06;63.43;100253.63;681827;1264;139261;-78
2024/03/09 21:42:13;;;;;;;130.40;47.80;;;;;;;4.03;64.35;100247.60;681872;1262;139143;-78
2024/03/09 21:57:18;;;;;;;69.50;26.40;;;;;;;3.89;64.24;100237.90;681808;1264;139485;-78
2024/03/09 22:12:21;;;;;;;48.20;20.60;;;;;;;3.96;65.22;100223.45;682024;1260;140136;-78
2024/03/09 22:27:25;;;;;;;41.00;19.00;;;;;;;4.18;64.93;100220.54;681950;1263;138929;-78
2024/03/09 22:42:29;;;;;;;44.50;19.10;;;;;;;4.27;65.13;100222.02;682176;1260;138631;-79
2024/03/09 22:57:33;;;;;;;92.50;33.30;;;;;;;4.24;64.98;100216.34;681905;1260;139981;-78
2024/03/09 23:12:37;;;;;;;41.10;18.70;;;;;;;4.12;65.13;100223.31;682000;1264;138846;-79
2024/03/09 23:27:46;;;;;;;51.00;19.60;;;;;;;3.95;64.99;100220.35;681852;1261;139286;-78
2024/03/09 23:42:50;;;;;;;51.70;20.00;;;;;;;3.84;65.29;100226.22;681958;1262;138970;-79
2024/03/09 23:57:54;;;;;;;46.50;19.60;;;;;;;3.58;65.67;100228.81;681777;1264;138855;-78
